createdAt,value
2023-05-11T00:00:02.120Z,47.04
2023-05-11T00:00:33.440Z,47.13
2023-05-11T00:01:05.437Z,47.11
2023-05-11T00:01:36.748Z,47.11
2023-05-11T00:02:08.131Z,47.11
2023-05-11T00:02:39.583Z,47.12
2023-05-11T00:03:11.155Z,47.11
2023-05-11T00:03:42.659Z,47.14
2023-05-11T00:04:14.102Z,46.90
2023-05-11T00:04:45.531Z,46.67
2023-05-11T00:05:17.019Z,46.77
2023-05-11T00:05:48.374Z,47.02
2023-05-11T00:06:19.684Z,46.62
2023-05-11T00:06:50.994Z,47.10
2023-05-11T00:07:22.467Z,47.15
2023-05-11T00:07:53.819Z,46.79
2023-05-11T00:08:25.148Z,46.79
2023-05-11T00:08:56.499Z,46.97
2023-05-11T00:09:28.158Z,46.72
2023-05-11T00:09:59.481Z,46.78
2023-05-11T00:10:30.874Z,46.66
2023-05-11T00:11:02.411Z,46.69
2023-05-11T00:11:33.966Z,46.89
2023-05-11T00:12:05.360Z,47.01
2023-05-11T00:12:36.667Z,46.77
2023-05-11T00:13:07.984Z,46.96
2023-05-11T00:13:39.322Z,46.99
2023-05-11T00:14:10.685Z,46.86
2023-05-11T00:14:42.144Z,46.75
2023-05-11T00:15:13.528Z,46.80
2023-05-11T00:15:44.878Z,46.83
2023-05-11T00:16:16.225Z,46.69
2023-05-11T00:16:47.724Z,46.73
2023-05-11T00:17:19.068Z,46.67
2023-05-11T00:17:50.482Z,47.09
2023-05-11T00:18:22.006Z,46.82
2023-05-11T00:18:53.395Z,46.68
2023-05-11T00:19:24.830Z,46.72
2023-05-11T00:19:56.145Z,46.93
2023-05-11T00:20:27.481Z,46.72
2023-05-11T00:20:59.026Z,46.92
2023-05-11T00:21:30.389Z,46.96
2023-05-11T00:22:01.734Z,46.71
2023-05-11T00:22:33.235Z,47.04
2023-05-11T00:23:04.596Z,46.71
2023-05-11T00:23:35.927Z,46.73
2023-05-11T00:24:07.476Z,46.67
2023-05-11T00:24:38.860Z,46.62
2023-05-11T00:25:10.164Z,46.76
2023-05-11T00:25:41.483Z,46.80
2023-05-11T00:26:12.792Z,46.59
2023-05-11T00:26:44.120Z,46.75
2023-05-11T00:27:15.455Z,46.53
2023-05-11T00:27:46.781Z,46.61
2023-05-11T00:28:18.154Z,46.81
2023-05-11T00:28:49.472Z,46.88
2023-05-11T00:29:20.821Z,46.62
2023-05-11T00:29:52.278Z,46.94
2023-05-11T00:30:23.671Z,46.61
2023-05-11T00:30:55.522Z,46.58
2023-05-11T00:31:29.584Z,46.65
2023-05-11T00:32:01.646Z,46.74
2023-05-11T00:32:33.006Z,46.72
2023-05-11T00:33:04.487Z,46.43
2023-05-11T00:33:35.853Z,46.86
2023-05-11T00:34:07.150Z,46.51
2023-05-11T00:34:38.442Z,46.61
2023-05-11T00:35:10.108Z,46.48
2023-05-11T00:35:41.458Z,46.83
2023-05-11T00:36:12.808Z,46.68
2023-05-11T00:36:44.131Z,46.77
2023-05-11T00:37:15.564Z,46.78
2023-05-11T00:37:47.090Z,46.56
2023-05-11T00:38:18.593Z,46.76
2023-05-11T00:38:49.898Z,46.68
2023-05-11T00:39:21.206Z,46.59
2023-05-11T00:39:52.651Z,46.77
2023-05-11T00:40:24.059Z,46.59
2023-05-11T00:40:55.379Z,46.64
2023-05-11T00:41:26.675Z,46.65
2023-05-11T00:41:58.017Z,46.36
2023-05-11T00:42:29.290Z,46.70
2023-05-11T00:43:00.578Z,46.52
2023-05-11T00:43:31.973Z,46.30
2023-05-11T00:44:03.301Z,46.33
2023-05-11T00:44:34.607Z,46.55
2023-05-11T00:45:06.302Z,46.47
2023-05-11T00:45:37.661Z,46.69
2023-05-11T00:46:08.992Z,46.42
2023-05-11T00:46:40.326Z,46.38
2023-05-11T00:47:11.687Z,46.25
2023-05-11T00:47:43.162Z,46.53
2023-05-11T00:48:14.830Z,46.48
2023-05-11T00:48:46.192Z,46.65
2023-05-11T00:49:17.574Z,46.39
2023-05-11T00:49:49.474Z,46.65
2023-05-11T00:50:20.940Z,46.34
2023-05-11T00:50:52.302Z,46.40
2023-05-11T00:51:23.599Z,46.29
2023-05-11T00:51:54.901Z,46.39
2023-05-11T00:52:26.277Z,46.50
2023-05-11T00:52:57.554Z,46.58
2023-05-11T00:53:28.859Z,46.52
2023-05-11T00:54:00.180Z,46.38
2023-05-11T00:54:31.511Z,46.41
2023-05-11T00:55:02.869Z,46.56
2023-05-11T00:55:34.206Z,46.70
2023-05-11T00:56:05.578Z,46.42
2023-05-11T00:56:36.953Z,46.68
2023-05-11T00:57:08.285Z,46.67
2023-05-11T00:57:39.583Z,46.46
2023-05-11T00:58:10.878Z,46.52
2023-05-11T00:58:42.204Z,46.48
2023-05-11T00:59:13.504Z,46.47
2023-05-11T00:59:44.853Z,46.56
2023-05-11T01:00:16.373Z,46.51
2023-05-11T01:00:47.925Z,46.65
2023-05-11T01:01:19.430Z,46.44
2023-05-11T01:01:50.836Z,46.70
2023-05-11T01:02:22.220Z,46.34
2023-05-11T01:02:53.752Z,46.53
2023-05-11T01:03:25.143Z,46.47
2023-05-11T01:03:56.489Z,46.27
2023-05-11T01:04:27.854Z,46.57
2023-05-11T01:04:59.471Z,46.26
2023-05-11T01:05:33.417Z,46.66
2023-05-11T01:06:08.922Z,46.32
2023-05-11T01:06:46.539Z,46.56
2023-05-11T01:07:21.663Z,46.35
2023-05-11T01:07:59.705Z,46.40
2023-05-11T01:08:34.227Z,46.61
2023-05-11T01:09:23.875Z,46.53
2023-05-11T01:10:14.014Z,46.38
2023-05-11T01:10:47.998Z,46.30
2023-05-11T01:11:41.750Z,46.30
2023-05-11T01:12:22.465Z,46.33
2023-05-11T01:12:58.912Z,46.26
2023-05-11T01:13:50.512Z,46.50
2023-05-11T01:14:23.243Z,46.49
2023-05-11T01:14:58.022Z,46.27
2023-05-11T01:15:46.170Z,46.24
2023-05-11T01:16:18.960Z,46.22
2023-05-11T01:16:52.141Z,46.37
2023-05-11T01:17:25.329Z,46.22
2023-05-11T01:18:06.870Z,46.33
2023-05-11T01:18:38.804Z,46.20
2023-05-11T01:19:18.529Z,46.21
2023-05-11T01:20:00.480Z,46.32
2023-05-11T01:20:31.903Z,46.33
2023-05-11T01:21:03.279Z,46.24
2023-05-11T01:21:34.602Z,46.37
2023-05-11T01:22:08.067Z,46.40
2023-05-11T01:22:58.200Z,46.50
2023-05-11T01:23:48.275Z,46.45
2023-05-11T01:24:23.787Z,46.54
2023-05-11T01:25:10.818Z,46.28
2023-05-11T01:26:00.351Z,46.23
2023-05-11T01:26:50.298Z,46.50
2023-05-11T01:27:27.643Z,46.44
2023-05-11T01:27:58.916Z,46.27
2023-05-11T01:29:02.725Z,46.18
2023-05-11T01:29:33.958Z,46.11
2023-05-11T01:30:37.325Z,46.21
2023-05-11T01:31:11.484Z,46.28
2023-05-11T01:31:42.905Z,46.32
2023-05-11T01:32:15.588Z,46.50
2023-05-11T01:32:46.953Z,46.27
2023-05-11T01:33:19.827Z,46.22
2023-05-11T01:33:55.388Z,46.32
2023-05-11T01:34:28.277Z,46.45
2023-05-11T01:35:18.801Z,46.16
2023-05-11T01:35:50.734Z,46.20
2023-05-11T01:36:22.438Z,46.16
2023-05-11T01:37:20.014Z,46.43
2023-05-11T01:37:51.788Z,46.21
2023-05-11T01:38:23.375Z,46.34
2023-05-11T01:38:54.672Z,46.45
2023-05-11T01:39:32.655Z,46.22
2023-05-11T01:40:10.053Z,46.25
2023-05-11T01:40:41.465Z,46.24
2023-05-11T01:41:13.936Z,46.31
2023-05-11T01:41:45.646Z,46.28
2023-05-11T01:42:16.978Z,46.44
2023-05-11T01:42:48.568Z,46.36
2023-05-11T01:43:20.879Z,46.53
2023-05-11T01:43:55.917Z,46.11
2023-05-11T01:44:27.264Z,46.21
2023-05-11T01:44:58.734Z,46.25
2023-05-11T01:45:31.424Z,46.23
2023-05-11T01:46:02.841Z,46.23
2023-05-11T01:46:34.487Z,46.21
2023-05-11T01:47:05.857Z,46.08
2023-05-11T01:47:37.262Z,46.38
2023-05-11T01:48:11.488Z,46.21
2023-05-11T01:48:44.154Z,45.99
2023-05-11T01:49:15.492Z,46.10
2023-05-11T01:49:46.814Z,46.20
2023-05-11T01:50:18.497Z,46.42
2023-05-11T01:50:50.063Z,46.38
2023-05-11T01:51:21.459Z,46.25
2023-05-11T01:51:52.819Z,46.29
2023-05-11T01:52:24.857Z,46.41
2023-05-11T01:52:56.250Z,46.51
2023-05-11T01:53:28.109Z,46.24
2023-05-11T01:53:59.560Z,46.47
2023-05-11T01:54:30.884Z,46.48
2023-05-11T01:55:02.430Z,46.26
2023-05-11T01:55:34.107Z,46.29
2023-05-11T01:56:05.628Z,46.33
2023-05-11T01:56:37.275Z,46.38
2023-05-11T01:57:08.642Z,46.33
2023-05-11T01:57:40.008Z,46.55
2023-05-11T01:58:11.335Z,46.35
2023-05-11T01:58:42.659Z,46.70
2023-05-11T01:59:14.011Z,46.61
2023-05-11T01:59:45.466Z,46.32
2023-05-11T02:00:17.198Z,46.61
2023-05-11T02:00:48.798Z,46.56
2023-05-11T02:01:20.183Z,46.32
2023-05-11T02:01:51.563Z,46.39
2023-05-11T02:02:22.957Z,46.39
2023-05-11T02:02:54.504Z,46.40
2023-05-11T02:03:26.117Z,46.31
2023-05-11T02:03:58.280Z,46.70
2023-05-11T02:04:29.630Z,46.41
2023-05-11T02:05:00.924Z,46.38
2023-05-11T02:05:32.286Z,46.54
2023-05-11T02:06:06.543Z,46.61
2023-05-11T02:06:37.970Z,46.72
2023-05-11T02:07:10.284Z,46.30
2023-05-11T02:07:41.684Z,46.46
2023-05-11T02:08:13.041Z,46.66
2023-05-11T02:08:44.896Z,46.69
2023-05-11T02:09:16.484Z,46.50
2023-05-11T02:09:47.839Z,46.55
2023-05-11T02:10:19.361Z,46.45
2023-05-11T02:10:50.916Z,46.73
2023-05-11T02:11:22.507Z,46.33
2023-05-11T02:11:53.814Z,46.71
2023-05-11T02:12:25.173Z,46.48
2023-05-11T02:12:56.596Z,46.51
2023-05-11T02:13:27.925Z,46.38
2023-05-11T02:13:59.261Z,46.60
2023-05-11T02:14:30.594Z,46.60
2023-05-11T02:15:01.959Z,46.51
2023-05-11T02:15:33.330Z,46.60
2023-05-11T02:16:04.800Z,46.43
2023-05-11T02:16:36.122Z,46.48
2023-05-11T02:17:07.465Z,46.78
2023-05-11T02:17:39.152Z,46.56
2023-05-11T02:18:11.528Z,46.87
2023-05-11T02:18:42.976Z,46.89
2023-05-11T02:19:14.344Z,46.45
2023-05-11T02:19:45.661Z,46.41
2023-05-11T02:20:17.176Z,46.69
2023-05-11T02:20:48.701Z,46.45
2023-05-11T02:21:20.118Z,46.45
2023-05-11T02:21:51.493Z,46.70
2023-05-11T02:22:22.794Z,46.55
2023-05-11T02:22:54.112Z,46.48
2023-05-11T02:23:25.468Z,46.60
2023-05-11T02:23:56.807Z,46.41
2023-05-11T02:24:28.258Z,46.41
2023-05-11T02:24:59.597Z,46.50
2023-05-11T02:25:30.947Z,46.40
2023-05-11T02:26:02.764Z,46.50
2023-05-11T02:26:34.073Z,46.35
2023-05-11T02:27:05.358Z,46.71
2023-05-11T02:27:36.693Z,46.62
2023-05-11T02:28:08.061Z,46.57
2023-05-11T02:28:39.407Z,46.38
2023-05-11T02:29:10.706Z,46.58
2023-05-11T02:29:42.034Z,46.63
2023-05-11T02:30:13.348Z,46.50
2023-05-11T02:30:45.389Z,46.30
2023-05-11T02:31:17.633Z,46.36
2023-05-11T02:31:49.202Z,46.55
2023-05-11T02:32:21.670Z,46.46
2023-05-11T02:32:53.182Z,46.67
2023-05-11T02:33:30.670Z,46.70
2023-05-11T02:34:06.197Z,46.55
2023-05-11T02:34:43.708Z,46.43
2023-05-11T02:35:25.358Z,46.51
2023-05-11T02:35:56.690Z,46.54
2023-05-11T02:36:28.460Z,46.30
2023-05-11T02:37:00.697Z,46.31
2023-05-11T02:37:32.700Z,46.53
2023-05-11T02:38:04.159Z,46.32
2023-05-11T02:38:35.551Z,46.59
2023-05-11T02:39:07.289Z,46.31
2023-05-11T02:39:38.751Z,46.43
2023-05-11T02:40:29.351Z,46.32
2023-05-11T02:41:01.403Z,46.53
2023-05-11T02:41:32.697Z,46.33
2023-05-11T02:42:15.068Z,46.14
2023-05-11T02:42:47.063Z,46.64
2023-05-11T02:43:24.819Z,46.54
2023-05-11T02:43:56.650Z,46.52
2023-05-11T02:44:28.588Z,46.49
2023-05-11T02:45:03.843Z,46.53
2023-05-11T02:45:35.441Z,46.52
2023-05-11T02:46:07.157Z,46.73
2023-05-11T02:46:38.497Z,46.52
2023-05-11T02:47:09.853Z,46.78
2023-05-11T02:47:48.239Z,46.62
2023-05-11T02:48:21.223Z,46.38
2023-05-11T02:48:53.131Z,46.56
2023-05-11T02:49:24.476Z,46.38
2023-05-11T02:49:55.845Z,46.62
2023-05-11T02:50:27.409Z,46.54
2023-05-11T02:50:58.746Z,46.66
2023-05-11T02:51:33.338Z,46.77
2023-05-11T02:52:04.630Z,46.40
2023-05-11T02:52:36.033Z,46.76
2023-05-11T02:53:08.301Z,46.46
2023-05-11T02:53:40.078Z,46.56
2023-05-11T02:54:11.474Z,46.72
2023-05-11T02:54:42.821Z,46.61
2023-05-11T02:55:15.007Z,46.34
2023-05-11T02:55:46.503Z,46.29
2023-05-11T02:56:17.866Z,46.34
2023-05-11T02:56:49.217Z,46.30
2023-05-11T02:57:20.783Z,46.30
2023-05-11T02:57:52.149Z,46.53
2023-05-11T02:58:23.498Z,46.53
2023-05-11T02:58:54.856Z,46.23
2023-05-11T02:59:26.212Z,46.16
2023-05-11T02:59:57.549Z,46.45
2023-05-11T03:00:28.990Z,46.26
2023-05-11T03:01:00.492Z,46.18
2023-05-11T03:01:31.987Z,46.13
2023-05-11T03:02:03.529Z,46.42
2023-05-11T03:02:35.189Z,46.49
2023-05-11T03:03:06.809Z,46.19
2023-05-11T03:03:38.398Z,46.61
2023-05-11T03:04:09.820Z,46.28
2023-05-11T03:04:41.270Z,46.18
2023-05-11T03:05:12.593Z,46.33
2023-05-11T03:05:43.943Z,46.41
2023-05-11T03:06:15.337Z,46.24
2023-05-11T03:06:46.680Z,46.35
2023-05-11T03:07:18.047Z,46.33
2023-05-11T03:07:49.364Z,46.43
2023-05-11T03:08:20.696Z,46.29
2023-05-11T03:08:52.025Z,46.41
2023-05-11T03:09:23.354Z,46.42
2023-05-11T03:09:54.710Z,46.49
2023-05-11T03:10:26.316Z,46.24
2023-05-11T03:10:57.785Z,45.93
2023-05-11T03:11:29.121Z,46.10
2023-05-11T03:12:00.462Z,46.19
2023-05-11T03:12:31.837Z,46.21
2023-05-11T03:13:03.440Z,46.31
2023-05-11T03:13:34.810Z,46.18
2023-05-11T03:14:06.158Z,46.31
2023-05-11T03:14:37.455Z,46.54
2023-05-11T03:15:08.866Z,46.41
2023-05-11T03:15:40.227Z,46.26
2023-05-11T03:16:11.647Z,46.23
2023-05-11T03:16:42.989Z,46.48
2023-05-11T03:17:14.699Z,46.31
2023-05-11T03:17:46.196Z,46.32
2023-05-11T03:18:17.611Z,46.52
2023-05-11T03:18:49.099Z,46.52
2023-05-11T03:19:20.506Z,46.58
2023-05-11T03:19:51.841Z,46.40
2023-05-11T03:20:23.373Z,46.26
2023-05-11T03:20:54.696Z,46.32
2023-05-11T03:21:26.021Z,46.26
2023-05-11T03:21:57.934Z,46.26
2023-05-11T03:22:29.233Z,46.65
2023-05-11T03:23:00.550Z,46.58
2023-05-11T03:23:31.880Z,46.42
2023-05-11T03:24:03.548Z,46.32
2023-05-11T03:24:34.868Z,46.33
2023-05-11T03:25:06.290Z,46.25
2023-05-11T03:25:37.616Z,46.40
2023-05-11T03:26:08.982Z,46.21
2023-05-11T03:26:40.795Z,46.19
2023-05-11T03:27:12.118Z,46.24
2023-05-11T03:27:43.468Z,46.56
2023-05-11T03:28:14.833Z,46.59
2023-05-11T03:28:46.198Z,46.61
2023-05-11T03:29:17.530Z,46.29
2023-05-11T03:29:48.878Z,46.28
2023-05-11T03:30:20.379Z,46.38
2023-05-11T03:30:51.901Z,46.25
2023-05-11T03:31:23.247Z,46.30
2023-05-11T03:31:54.841Z,46.24
2023-05-11T03:32:26.242Z,46.36
2023-05-11T03:32:57.693Z,46.19
2023-05-11T03:33:29.027Z,46.26
2023-05-11T03:34:00.348Z,46.33
2023-05-11T03:34:32.070Z,46.43
2023-05-11T03:35:03.480Z,46.39
2023-05-11T03:35:34.832Z,46.38
2023-05-11T03:36:06.283Z,46.33
2023-05-11T03:36:38.394Z,46.36
2023-05-11T03:37:10.561Z,46.26
2023-05-11T03:37:41.910Z,46.40
2023-05-11T03:38:13.249Z,46.31
2023-05-11T03:38:47.394Z,46.38
2023-05-11T03:39:18.697Z,46.04
2023-05-11T03:39:50.976Z,46.09
2023-05-11T03:40:22.356Z,46.37
2023-05-11T03:40:53.692Z,46.16
2023-05-11T03:41:25.212Z,46.33
2023-05-11T03:41:56.559Z,46.09
2023-05-11T03:42:27.891Z,46.27
2023-05-11T03:42:59.301Z,46.15
2023-05-11T03:43:30.688Z,46.10
2023-05-11T03:44:02.796Z,46.15
2023-05-11T03:44:34.164Z,46.10
2023-05-11T03:45:05.772Z,46.18
2023-05-11T03:45:37.104Z,46.31
2023-05-11T03:46:08.627Z,46.05
2023-05-11T03:46:40.260Z,46.18
2023-05-11T03:47:11.704Z,46.10
2023-05-11T03:47:43.098Z,46.05
2023-05-11T03:48:14.625Z,46.11
2023-05-11T03:48:45.920Z,46.13
2023-05-11T03:49:17.718Z,46.37
2023-05-11T03:49:49.581Z,46.09
2023-05-11T03:50:21.000Z,45.95
2023-05-11T03:50:52.306Z,46.08
2023-05-11T03:51:23.715Z,46.14
2023-05-11T03:51:55.025Z,46.05
2023-05-11T03:52:26.341Z,46.08
2023-05-11T03:52:57.682Z,46.32
2023-05-11T03:53:29.036Z,46.06
2023-05-11T03:54:00.394Z,46.32
2023-05-11T03:54:31.780Z,46.36
2023-05-11T03:55:03.321Z,46.05
2023-05-11T03:55:34.696Z,46.25
2023-05-11T03:56:06.225Z,46.27
2023-05-11T03:56:37.915Z,46.27
2023-05-11T03:57:09.546Z,46.20
2023-05-11T03:57:40.922Z,46.06
2023-05-11T03:58:12.270Z,45.97
2023-05-11T03:58:43.626Z,46.07
2023-05-11T03:59:17.682Z,45.90
2023-05-11T03:59:49.081Z,46.17
2023-05-11T04:00:20.626Z,46.13
2023-05-11T04:00:52.094Z,45.97
2023-05-11T04:01:23.416Z,46.27
2023-05-11T04:01:54.796Z,46.15
2023-05-11T04:02:26.210Z,46.22
2023-05-11T04:02:57.705Z,46.33
2023-05-11T04:03:29.208Z,46.06
2023-05-11T04:04:00.671Z,46.49
2023-05-11T04:04:32.223Z,46.39
2023-05-11T04:05:07.356Z,46.38
2023-05-11T04:05:38.677Z,46.41
2023-05-11T04:06:09.971Z,46.16
2023-05-11T04:06:41.299Z,46.17
2023-05-11T04:07:12.652Z,46.16
2023-05-11T04:07:43.948Z,46.31
2023-05-11T04:08:15.372Z,46.35
2023-05-11T04:08:46.704Z,46.14
2023-05-11T04:09:18.025Z,46.51
2023-05-11T04:09:49.350Z,46.24
2023-05-11T04:10:20.782Z,46.18
2023-05-11T04:10:52.176Z,46.35
2023-05-11T04:11:23.496Z,46.38
2023-05-11T04:11:54.923Z,46.18
2023-05-11T04:12:26.354Z,46.24
2023-05-11T04:12:57.673Z,46.23
2023-05-11T04:13:29.001Z,46.10
2023-05-11T04:14:00.326Z,46.42
2023-05-11T04:14:31.647Z,46.16
2023-05-11T04:15:03.010Z,46.28
2023-05-11T04:15:34.331Z,46.33
2023-05-11T04:16:06.002Z,46.02
2023-05-11T04:16:37.510Z,46.15
2023-05-11T04:17:08.936Z,46.27
2023-05-11T04:17:40.354Z,46.29
2023-05-11T04:18:11.731Z,46.08
2023-05-11T04:18:43.073Z,46.45
2023-05-11T04:19:14.483Z,46.39
2023-05-11T04:19:45.801Z,46.18
2023-05-11T04:20:17.349Z,46.27
2023-05-11T04:20:48.748Z,46.29
2023-05-11T04:21:20.096Z,46.21
2023-05-11T04:21:51.546Z,46.24
2023-05-11T04:22:22.861Z,46.08
2023-05-11T04:22:54.217Z,46.21
2023-05-11T04:23:25.532Z,46.33
2023-05-11T04:23:56.860Z,46.39
2023-05-11T04:24:28.236Z,46.15
2023-05-11T04:24:59.561Z,46.23
2023-05-11T04:25:30.856Z,46.13
2023-05-11T04:26:02.205Z,46.05
2023-05-11T04:26:33.531Z,46.12
2023-05-11T04:27:04.890Z,46.17
2023-05-11T04:27:36.190Z,46.12
2023-05-11T04:28:07.579Z,46.25
2023-05-11T04:28:38.898Z,46.18
2023-05-11T04:29:10.367Z,46.11
2023-05-11T04:29:41.696Z,46.24
2023-05-11T04:30:13.105Z,46.21
2023-05-11T04:30:44.442Z,46.13
2023-05-11T04:31:15.759Z,46.38
2023-05-11T04:31:47.132Z,46.35
2023-05-11T04:32:18.464Z,46.27
2023-05-11T04:32:49.802Z,46.34
2023-05-11T04:33:21.291Z,46.13
2023-05-11T04:33:52.696Z,46.07
2023-05-11T04:34:24.039Z,46.41
2023-05-11T04:34:55.354Z,46.11
2023-05-11T04:35:26.679Z,46.15
2023-05-11T04:35:58.036Z,46.41
2023-05-11T04:36:29.346Z,46.43
2023-05-11T04:37:00.636Z,46.29
2023-05-11T04:37:31.992Z,46.34
2023-05-11T04:38:03.508Z,46.40
2023-05-11T04:38:35.156Z,46.61
2023-05-11T04:39:07.892Z,46.45
2023-05-11T04:39:39.351Z,46.23
2023-05-11T04:40:10.915Z,46.33
2023-05-11T04:40:42.269Z,46.60
2023-05-11T04:41:13.596Z,46.48
2023-05-11T04:41:45.139Z,46.43
2023-05-11T04:42:16.513Z,46.57
2023-05-11T04:42:47.801Z,46.36
2023-05-11T04:43:19.127Z,46.25
2023-05-11T04:43:50.522Z,46.27
2023-05-11T04:44:21.875Z,46.59
2023-05-11T04:44:53.492Z,46.49
2023-05-11T04:45:24.795Z,46.37
2023-05-11T04:45:56.113Z,46.55
2023-05-11T04:46:27.510Z,46.24
2023-05-11T04:46:58.890Z,46.60
2023-05-11T04:47:30.268Z,46.19
2023-05-11T04:48:01.680Z,46.43
2023-05-11T04:48:33.047Z,46.50
2023-05-11T04:49:05.057Z,46.36
2023-05-11T04:49:36.353Z,46.13
2023-05-11T04:50:07.814Z,46.08
2023-05-11T04:50:39.146Z,46.40
2023-05-11T04:51:10.533Z,46.15
2023-05-11T04:51:41.828Z,46.40
2023-05-11T04:52:13.169Z,46.25
2023-05-11T04:52:44.487Z,46.41
2023-05-11T04:53:15.823Z,46.33
2023-05-11T04:53:47.588Z,46.28
2023-05-11T04:54:18.979Z,46.30
2023-05-11T04:54:50.296Z,46.39
2023-05-11T04:55:21.605Z,46.15
2023-05-11T04:55:52.955Z,46.26
2023-05-11T04:56:24.272Z,46.34
2023-05-11T04:56:55.657Z,46.34
2023-05-11T04:57:27.043Z,46.19
2023-05-11T04:57:58.406Z,46.30
2023-05-11T04:58:29.769Z,46.26
2023-05-11T04:59:02.485Z,46.16
2023-05-11T04:59:35.413Z,46.24
2023-05-11T05:00:07.219Z,46.37
2023-05-11T05:00:38.567Z,46.41
2023-05-11T05:01:09.928Z,46.43
2023-05-11T05:01:41.411Z,46.22
2023-05-11T05:02:12.960Z,46.27
2023-05-11T05:02:44.347Z,46.50
2023-05-11T05:03:15.807Z,46.30
2023-05-11T05:03:49.821Z,46.15
2023-05-11T05:04:21.268Z,46.47
2023-05-11T05:04:52.716Z,46.12
2023-05-11T05:05:24.076Z,46.38
2023-05-11T05:05:55.413Z,46.20
2023-05-11T05:06:26.758Z,46.31
2023-05-11T05:06:58.144Z,46.35
2023-05-11T05:07:29.578Z,46.38
2023-05-11T05:08:01.016Z,46.45
2023-05-11T05:08:32.433Z,46.60
2023-05-11T05:09:04.089Z,46.40
2023-05-11T05:09:35.502Z,46.36
2023-05-11T05:10:07.108Z,46.42
2023-05-11T05:10:38.405Z,46.23
2023-05-11T05:11:09.803Z,46.23
2023-05-11T05:11:41.176Z,46.24
2023-05-11T05:12:12.610Z,46.29
2023-05-11T05:12:43.949Z,46.47
2023-05-11T05:13:15.383Z,46.15
2023-05-11T05:13:46.716Z,46.42
2023-05-11T05:14:18.033Z,46.50
2023-05-11T05:14:49.399Z,46.31
2023-05-11T05:15:20.837Z,46.34
2023-05-11T05:15:52.152Z,46.49
2023-05-11T05:16:23.468Z,46.36
2023-05-11T05:16:54.956Z,46.22
2023-05-11T05:17:26.358Z,46.13
2023-05-11T05:17:57.840Z,46.52
2023-05-11T05:18:29.278Z,46.09
2023-05-11T05:19:00.693Z,46.34
2023-05-11T05:19:32.061Z,46.24
2023-05-11T05:20:14.336Z,46.23
2023-05-11T05:20:51.189Z,46.09
2023-05-11T05:21:33.187Z,46.21
2023-05-11T05:22:10.823Z,46.38
2023-05-11T05:22:51.826Z,46.05
2023-05-11T05:23:36.121Z,46.31
2023-05-11T05:24:12.114Z,46.00
2023-05-11T05:24:59.280Z,46.23
2023-05-11T05:25:52.417Z,46.21
2023-05-11T05:26:28.880Z,46.03
2023-05-11T05:27:04.697Z,45.88
2023-05-11T05:27:56.452Z,46.07
2023-05-11T05:29:34.577Z,46.13
2023-05-11T06:05:24.355Z,46.36
2023-05-11T06:05:55.632Z,46.45
2023-05-11T06:06:26.916Z,46.27
2023-05-11T06:06:58.208Z,46.64
2023-05-11T06:07:29.555Z,46.37
2023-05-11T06:08:09.983Z,46.41
2023-05-11T06:08:42.893Z,46.19
2023-05-11T06:09:14.512Z,46.32
2023-05-11T06:09:46.144Z,46.13
2023-05-11T06:10:18.029Z,46.27
2023-05-11T06:10:49.876Z,46.17
2023-05-11T06:11:21.523Z,46.13
2023-05-11T06:11:53.143Z,46.16
2023-05-11T06:12:24.828Z,46.21
2023-05-11T06:12:56.404Z,46.40
2023-05-11T06:13:28.013Z,46.04
2023-05-11T06:13:59.617Z,46.36
2023-05-11T06:14:31.500Z,46.27
2023-05-11T06:15:03.378Z,46.04
2023-05-11T06:15:35.009Z,46.20
2023-05-11T06:16:06.651Z,46.05
2023-05-11T06:16:38.310Z,46.11
2023-05-11T06:17:10.070Z,46.15
2023-05-11T06:17:41.761Z,46.14
2023-05-11T06:18:13.531Z,46.12
2023-05-11T06:18:46.033Z,46.46
2023-05-11T06:19:17.716Z,46.09
2023-05-11T06:19:49.684Z,46.34
2023-05-11T06:20:21.344Z,46.40
2023-05-11T06:20:52.972Z,45.99
2023-05-11T06:21:24.489Z,46.37
2023-05-11T06:21:56.029Z,46.42
2023-05-11T06:22:27.624Z,46.20
2023-05-11T06:22:59.233Z,46.42
2023-05-11T06:23:30.815Z,46.38
2023-05-11T06:24:02.437Z,46.18
2023-05-11T06:24:34.014Z,46.30
2023-05-11T06:25:05.955Z,46.13
2023-05-11T06:25:37.639Z,46.26
2023-05-11T06:26:09.384Z,46.46
2023-05-11T06:26:41.049Z,46.31
2023-05-11T06:27:12.936Z,46.31
2023-05-11T06:27:44.669Z,46.34
2023-05-11T06:28:16.271Z,46.36
2023-05-11T06:28:47.887Z,46.40
2023-05-11T06:29:19.520Z,46.29
2023-05-11T06:29:51.240Z,46.44
2023-05-11T06:30:22.856Z,46.14
2023-05-11T06:30:56.173Z,46.17
2023-05-11T06:31:27.847Z,46.27
2023-05-11T06:31:59.499Z,46.51
2023-05-11T06:32:31.184Z,46.32
2023-05-11T06:33:02.899Z,46.44
2023-05-11T06:33:34.544Z,45.97
2023-05-11T06:34:06.119Z,46.15
2023-05-11T06:34:37.722Z,45.99
2023-05-11T06:35:09.416Z,46.42
2023-05-11T06:35:40.958Z,46.35
2023-05-11T06:36:12.555Z,45.94
2023-05-11T06:36:44.241Z,46.09
2023-05-11T06:37:15.825Z,46.40
2023-05-11T06:37:47.438Z,46.39
2023-05-11T06:38:19.147Z,46.04
2023-05-11T06:38:50.764Z,46.10
2023-05-11T06:39:22.386Z,46.24
2023-05-11T06:39:53.982Z,46.22
2023-05-11T06:40:25.569Z,46.06
2023-05-11T06:40:57.155Z,46.08
2023-05-11T06:41:28.750Z,46.10
2023-05-11T06:42:02.902Z,46.02
2023-05-11T06:42:36.596Z,45.96
2023-05-11T06:43:08.186Z,46.01
2023-05-11T06:43:39.813Z,46.00
2023-05-11T06:44:11.725Z,46.01
2023-05-11T06:44:43.314Z,46.05
2023-05-11T06:45:14.989Z,46.26
2023-05-11T06:45:46.705Z,46.14
2023-05-11T06:46:18.412Z,46.08
2023-05-11T06:46:50.194Z,46.30
2023-05-11T06:47:22.038Z,45.95
2023-05-11T06:47:53.793Z,46.25
2023-05-11T06:48:25.547Z,46.18
2023-05-11T06:48:57.220Z,46.16
2023-05-11T06:49:28.905Z,46.35
2023-05-11T06:50:00.467Z,45.93
2023-05-11T06:50:32.063Z,46.31
2023-05-11T06:51:03.721Z,46.29
2023-05-11T06:51:35.313Z,45.98
2023-05-11T06:52:06.889Z,46.03
2023-05-11T06:52:38.482Z,46.12
2023-05-11T06:53:10.075Z,46.17
2023-05-11T06:53:41.714Z,46.23
2023-05-11T06:54:13.307Z,45.99
2023-05-11T06:54:44.913Z,46.09
2023-05-11T06:55:16.545Z,45.98
2023-05-11T06:55:48.228Z,45.84
2023-05-11T06:56:19.822Z,45.87
2023-05-11T06:56:51.404Z,46.06
2023-05-11T06:57:23.030Z,46.09
2023-05-11T06:57:54.681Z,46.04
2023-05-11T06:58:26.312Z,46.04
2023-05-11T06:58:57.933Z,45.95
2023-05-11T06:59:29.817Z,46.17
2023-05-11T07:00:01.412Z,45.91
2023-05-11T07:00:33.016Z,46.02
2023-05-11T07:01:04.643Z,45.88
2023-05-11T07:01:36.411Z,45.92
2023-05-11T07:02:08.109Z,46.30
2023-05-11T07:02:39.775Z,46.16
2023-05-11T07:03:11.489Z,46.27
2023-05-11T07:03:43.159Z,46.35
2023-05-11T07:04:14.826Z,46.07
2023-05-11T07:04:46.556Z,45.90
2023-05-11T07:05:18.240Z,46.31
2023-05-11T07:05:49.905Z,46.00
2023-05-11T07:06:21.546Z,46.06
2023-05-11T07:06:53.146Z,46.01
2023-05-11T07:07:24.884Z,46.01
2023-05-11T07:07:56.462Z,46.02
2023-05-11T07:08:28.148Z,46.32
2023-05-11T07:08:59.761Z,45.95
2023-05-11T07:09:31.335Z,45.84
2023-05-11T07:10:03.013Z,46.12
2023-05-11T07:10:34.592Z,46.09
2023-05-11T07:11:06.752Z,46.00
2023-05-11T07:11:38.336Z,46.25
2023-05-11T07:12:09.940Z,45.94
2023-05-11T07:12:41.522Z,46.05
2023-05-11T07:13:13.177Z,46.25
2023-05-11T07:13:44.794Z,45.90
2023-05-11T07:14:16.414Z,45.84
2023-05-11T07:14:48.082Z,46.18
2023-05-11T07:15:19.669Z,46.04
2023-05-11T07:15:51.373Z,45.98
2023-05-11T07:16:22.994Z,46.04
2023-05-11T07:16:54.632Z,45.91
2023-05-11T07:17:26.358Z,45.98
2023-05-11T07:17:57.986Z,46.30
2023-05-11T07:18:29.802Z,46.24
2023-05-11T07:19:01.575Z,45.75
2023-05-11T07:19:33.206Z,46.25
2023-05-11T07:20:04.987Z,46.03
2023-05-11T07:20:36.615Z,45.93
2023-05-11T07:21:08.209Z,46.02
2023-05-11T07:21:39.790Z,46.09
2023-05-11T07:22:12.232Z,46.13
2023-05-11T07:22:45.736Z,45.86
2023-05-11T07:23:17.314Z,45.82
2023-05-11T07:23:48.919Z,46.13
2023-05-11T07:24:20.503Z,46.07
2023-05-11T07:24:52.092Z,46.24
2023-05-11T07:25:23.580Z,46.03
2023-05-11T07:25:55.155Z,45.90
2023-05-11T07:26:26.673Z,46.33
2023-05-11T07:26:58.255Z,45.79
2023-05-11T07:27:29.818Z,45.83
2023-05-11T07:28:01.388Z,45.96
2023-05-11T07:28:32.962Z,45.96
2023-05-11T07:29:04.573Z,45.92
2023-05-11T07:29:36.264Z,45.75
2023-05-11T07:30:08.122Z,45.85
2023-05-11T07:30:39.685Z,45.97
2023-05-11T07:31:11.361Z,46.06
2023-05-11T07:31:43.083Z,45.79
2023-05-11T07:32:14.736Z,45.96
2023-05-11T07:32:46.377Z,46.13